Flight Track Log - Related Links

Times and Time Zones

All times are in EDT time to prevent confusion due to time zone crossing. See the UAL906 flight status page for this flight to view local times or setup timezone preferences in your user account.

Time Position Orientation Groundspeed Altitude Reporting Facility
EDT Latitude Longitude Course Direction KTS MPH feet Rate Location/Type
Sat 07:30:21 AM 50.0480 8.5700 244° Southwest 11 13  Level FlightAware ADS-B
Sat 07:31:49 AM 50.0470 8.5700 180° South 11 13 18 Level FlightAware ADS-B
Sat 07:32:45 AM 50.0470 8.5690 270° West 12 14 19 Level FlightAware ADS-B
Sat 07:35:00 AM 50.1876 8.1998 300° West  Level FlightAware Approximate
Sat 07:36:00 AM 50.2596 8.0475 308° West  Level FlightAware Approximate
Sat 07:37:00 AM 50.3289 7.8923 308° West  Level FlightAware Approximate
Sat 07:38:00 AM 50.4009 7.7393 305° West  Level FlightAware Approximate
Sat 07:38:09 AM 50.0460 8.5690 305° West 12 14  Level FlightAware ADS-B
Sat 07:39:17 AM 50.0450 8.5690 180° South 16 18 28 Level FlightAware ADS-B
Sat 07:39:45 AM 50.0450 8.5680 270° West 15 17 30 Level FlightAware ADS-B
Sat 07:40:29 AM 50.0430 8.5680 180° South 22 25 32 Level FlightAware ADS-B
Sat 07:40:57 AM 50.0420 8.5670 213° Southwest 25 29 34 Level FlightAware ADS-B
Sat 07:41:25 AM 50.0420 8.5660 270° West 24 28 35 Level FlightAware ADS-B
Sat 07:41:53 AM 50.0420 8.5640 270° West 24 28 36 Level FlightAware ADS-B
Sat 07:42:21 AM 50.0410 8.5620 232° Southwest 26 30 38 Level FlightAware ADS-B
Sat 07:42:49 AM 50.0410 8.5600 270° West 28 32 40 Level FlightAware ADS-B
Sat 07:43:17 AM 50.0400 8.5580 232° Southwest 34 39 42 Level FlightAware ADS-B
Sat 07:43:44 AM 50.0390 8.5550 243° Southwest 31 36 44 Level FlightAware ADS-B
Sat 07:44:13 AM 50.0390 8.5520 270° West 16 18 46 Level FlightAware ADS-B
Sat 07:44:42 AM 50.0380 8.5500 232° Southwest 33 38 49 Level FlightAware ADS-B
Sat 07:45:10 AM 50.0370 8.5470 243° Southwest 17 20 52 Level FlightAware ADS-B
Sat 07:45:38 AM 50.0370 8.5440 270° West 32 37 55 Level FlightAware ADS-B
Sat 07:46:04 AM 50.0360 8.5420 232° Southwest 28 32 59 Level FlightAware ADS-B
Sat 07:46:26 AM 50.0360 8.5400 270° West 26 30 63 Level FlightAware ADS-B
Sat 07:46:58 AM 50.0350 8.5380 232° Southwest 27 31 67 Level FlightAware ADS-B
Sat 07:47:26 AM 50.0350 8.5360 270° West 23 26 74 Level FlightAware ADS-B
Sat 07:47:42 AM 50.0350 8.5350 270° West 19 22 81 Level FlightAware ADS-B
Sat 07:47:54 AM 50.0340 8.5350 180° South 18 21 85 Level FlightAware ADS-B
Sat 07:48:03 AM 50.0340 8.5340 270° West 19 22 89 Level FlightAware ADS-B
Sat 07:48:39 AM 50.0330 8.5360 128° Southeast 25 29 92 Level FlightAware ADS-B
Sat 07:49:18 AM 50.0330 8.5370 90° East 107 Level FlightAware ADS-B
Sat 07:51:00 AM 50.1571 8.2811 300° West  Level FlightAware Approximate
Sat 07:51:42 AM 50.0330 8.5380 300° West 34 39  Level FlightAware ADS-B
Sat 07:52:04 AM 50.0360 8.5500 69° East 125 144 571 Level FlightAware ADS-B
Sat 07:52:24 AM 50.0420 8.5730 68° East 176 203 400 1,826 Climbing FlightAware ADS-B
Sat 07:52:50 AM 50.0490 8.6030 70° East 178 205 1,400 2,250 Climbing FlightAware ADS-B
Sat 07:53:12 AM 50.0550 8.6290 70° East 180 207 2,200 1,889 Climbing FlightAware ADS-B
Sat 07:53:44 AM 50.0640 8.6690 71° East 186 214 3,100 1,625 Climbing FlightAware ADS-B
Sat 07:54:00 AM 50.0690 8.6900 70° East 194 223 3,500 1,364 Climbing FlightAware ADS-B
Sat 07:54:28 AM 50.0810 8.7260 63° Northeast 219 252 4,100 1,200 Climbing FlightAware ADS-B
Sat 07:54:40 AM 50.0920 8.7380 35° Northeast 235 270 4,300 1,071 Climbing FlightAware ADS-B
Sat 07:54:56 AM 50.1090 8.7460 17° North 252 290 4,600 1,500 Climbing FlightAware ADS-B
Sat 07:55:24 AM 50.1430 8.7600 15° North 271 312 5,400 2,036 Climbing FlightAware ADS-B
Sat 07:55:52 AM 50.1750 8.7790 21° North 275 316 6,500 2,357 Climbing FlightAware ADS-B
Sat 07:56:20 AM 50.2100 8.7960 17° North 283 326 7,600 2,222 Climbing FlightAware ADS-B
Sat 07:56:46 AM 50.2420 8.7830 345° North 290 334 8,500 2,100 Climbing FlightAware ADS-B
Sat 07:57:00 AM 50.2570 8.7610 317° Northwest 293 337 9,000 2,200 Climbing FlightAware ADS-B
Sat 07:57:16 AM 50.2670 8.7310 298° West 297 342 9,600 2,172 Climbing FlightAware ADS-B
Sat 07:57:58 AM 50.2870 8.6460 290° West 302 348 11,100 2,093 Climbing FlightAware ADS-B
Sat 07:58:42 AM 50.3090 8.5560 291° West 307 353 12,600 1,786 Climbing FlightAware ADS-B
Sat 07:59:22 AM 50.3310 8.4710 292° West 323 372 13,600 1,425 Climbing FlightAware ADS-B
Sat 08:00:02 AM 50.3520 8.3820 290° West 345 397 14,500 1,350 Climbing FlightAware ADS-B
Sat 08:00:42 AM 50.3760 8.2840 291° West 364 419 15,400 1,214 Climbing FlightAware ADS-B
Sat 08:01:26 AM 50.4020 8.1810 292° West 376 433 16,200 1,079 Climbing FlightAware ADS-B
Sat 08:02:11 AM 50.4300 8.0660 291° West 401 461 17,000 1,275 Climbing FlightAware ADS-B
Sat 08:02:46 AM 50.4540 7.9650 291° West 413 475 17,900 1,650 Climbing FlightAware ADS-B
Sat 08:03:31 AM 50.4870 7.8310 291° West 419 482 19,200 1,624 Climbing FlightAware ADS-B
Sat 08:04:11 AM 50.5120 7.7220 290° West 422 486 20,200 1,412 Climbing FlightAware ADS-B
Sat 08:04:56 AM 50.5510 7.5890 295° West 432 497 21,200 1,400 Climbing FlightAware ADS-B
Sat 08:05:41 AM 50.6120 7.4910 314° West 433 498 22,300 1,500 Climbing FlightAware ADS-B
Sat 08:06:16 AM 50.6650 7.4110 316° Northwest 436 502 23,200 1,360 Climbing FlightAware ADS-B
Sat 08:06:56 AM 50.7300 7.3350 324° Northwest 449 517 24,000 1,267 Climbing FlightAware ADS-B
Sat 08:07:46 AM 50.8210 7.2500 329° Northwest 448 516 25,100 1,267 Climbing FlightAware ADS-B
Sat 08:08:26 AM 50.8920 7.1830 329° Northwest 452 520 25,900 1,200 Climbing FlightAware ADS-B
Sat 08:09:06 AM 50.9630 7.1090 327° Northwest 460 529 26,700 1,200 Climbing FlightAware ADS-B
Sat 08:09:46 AM 51.0200 7.0090 312° West 462 532 27,500 951 Climbing FlightAware ADS-B
Sat 08:10:28 AM 51.0660 6.9260 311° West 465 535 28,000 750 Climbing FlightAware ADS-B
Sat 08:11:30 AM 51.1280 6.8180 312° West 471 542 28,800 1,071 Climbing FlightAware ADS-B
Sat 08:12:20 AM 51.2430 6.6010 310° West 480 552 30,000 800 Climbing FlightAware ADS-B
Sat 08:13:00 AM 51.2980 6.4950 310° West 481 554 30,000 512 Level FlightAware ADS-B
Sat 08:13:42 AM 51.3580 6.3800 310° West 477 549 30,700 1,214 Climbing FlightAware ADS-B
Sat 08:14:24 AM 51.4170 6.2650 309° West 471 542 31,700 1,256 Climbing FlightAware ADS-B
Sat 08:15:08 AM 51.4770 6.1470 309° West 470 541 32,500 1,023 Climbing FlightAware ADS-B
Sat 08:15:52 AM 51.5360 6.0290 309° West 468 539 33,200 1,000 Climbing FlightAware ADS-B
Sat 08:16:32 AM 51.5910 5.9220 310° West 465 535 33,900 600 Climbing FlightAware ADS-B
Sat 08:17:12 AM 51.6450 5.8150 309° West 465 535 34,000 73 Climbing FlightAware ADS-B
Sat 08:17:54 AM 51.7030 5.6990 309° West 464 534 34,000  Level FlightAware ADS-B
Sat 08:17:56 AM 51.6987 5.6874 309° West 1 1 34,000  Level FlightAware UK
Sat 08:18:26 AM 51.7420 5.6103 309° West 482 555 34,000  Level FlightAware UK
Sat 08:18:36 AM 51.7570 5.5910 309° West 463 533 34,000  Level FlightAware ADS-B
Sat 08:19:20 AM 51.8170 5.4690 309° West 462 532 34,000  Level FlightAware ADS-B
Sat 08:20:03 AM 51.8650 5.3720 309° West 461 531 34,000 -91 Level FlightAware ADS-B
Sat 08:20:26 AM 51.9064 5.2914 309° West 480 552 33,900  Descending FlightAware UK
Sat 08:20:42 AM 51.9250 5.2500 309° West 459 528 34,000  Climbing FlightAware ADS-B
Sat 08:21:02 AM 51.9521 5.1927 309° West 482 555 33,900  Descending FlightAware UK
Sat 08:21:26 AM 51.9830 5.1330 309° West 459 528 34,000  Climbing FlightAware ADS-B
Sat 08:21:44 AM 52.0080 5.0804 309° West 480 552 33,900  Descending FlightAware UK
Sat 08:22:06 AM 52.0350 5.0260 309° West 458 527 34,000  Climbing FlightAware ADS-B
Sat 08:22:44 AM 52.0873 4.9192 309° West 478 550 33,900  Descending FlightAware UK
Sat 08:22:52 AM 52.0960 4.9000 309° West 457 526 34,000 125 Climbing FlightAware ADS-B
Sat 08:23:32 AM 52.1480 4.7920 308° West 457 526 34,000 -103 Level FlightAware ADS-B
Sat 08:23:50 AM 52.1725 4.7402 308° West 478 550 33,900  Descending FlightAware UK
Sat 08:24:15 AM 52.2030 4.6790 308° West 458 527 34,000  Climbing FlightAware ADS-B
Sat 08:24:44 AM 52.2443 4.5951 308° West 476 548 33,900  Descending FlightAware UK
Sat 08:24:56 AM 52.2580 4.5630 308° West 458 527 34,000 128 Climbing FlightAware ADS-B
Sat 08:25:31 AM 52.3067 4.4643 308° West 480 552 34,000  Level FlightAware UK
Sat 08:25:36 AM 52.3090 4.4570 308° West 458 527 34,000  Level FlightAware ADS-B
Sat 08:26:20 AM 52.3660 4.3370 308° West 457 526 34,000  Level FlightAware ADS-B
Sat 08:27:00 AM 52.4170 4.2290 308° West 457 526 34,000  Level FlightAware ADS-B
Sat 08:27:40 AM 52.4710 4.1140 308° West 456 525 34,000  Level FlightAware ADS-B
Sat 08:28:24 AM 52.5250 3.9990 308° West 455 524 34,000 -95 Level FlightAware ADS-B
Sat 08:28:43 AM 52.5539 3.9392 308° West 476 548 33,900  Descending FlightAware UK
Sat 08:29:10 AM 52.5840 3.8720 308° West 456 525 34,000 98 Climbing FlightAware ADS-B
Sat 08:29:44 AM 52.6280 3.7770 308° West 458 527 34,000  Level FlightAware ADS-B
Sat 08:29:49 AM 52.6379 3.7578 308° West 478 550 34,000  Level FlightAware UK
Sat 08:30:32 AM 52.6890 3.6460 308° West 458 527 34,000  Level FlightAware ADS-B
Sat 08:31:14 AM 52.7430 3.5280 307° West 457 526 34,000  Level FlightAware ADS-B
Sat 08:31:31 AM 52.7681 3.4752 307° West 478 550 34,000  Level FlightAware UK
Sat 08:31:54 AM 52.7940 3.4170 307° West 457 526 34,000  Level FlightAware ADS-B
Sat 08:32:25 AM 52.8365 3.3256 307° West 478 550 34,000  Level FlightAware UK
Sat 08:32:38 AM 52.8520 3.2880 307° West 457 526 34,000  Level FlightAware ADS-B
Sat 08:33:18 AM 52.8980 3.1730 307° West 459 528 34,000 -146 Level FlightAware ADS-B
Sat 08:33:19 AM 52.9000 3.1691 307° West 472 543 33,900  Descending FlightAware UK
Sat 08:34:02 AM 52.9490 3.0450 304° West 460 529 34,000 72 Climbing FlightAware ADS-B
Sat 08:34:42 AM 52.9970 2.9280 304° West 461 531 34,000  Level FlightAware ADS-B
Sat 08:35:19 AM 53.0420 2.8182 304° West 478 550 34,000  Level FlightAware UK
Sat 08:35:26 AM 53.0490 2.7990 304° West 462 532 34,000  Level FlightAware ADS-B
Sat 08:36:10 AM 53.1010 2.6700 304° West 462 532 34,000  Level FlightAware ADS-B
Sat 08:36:43 AM 53.1418 2.5708 304° West 478 550 34,000  Level FlightAware UK
Sat 08:36:49 AM 53.1480 2.5530 304° West 460 529 34,000  Level FlightAware ADS-B
Sat 08:37:13 AM 53.1766 2.4808 304° West 480 552 34,000  Level FlightAware UK
Sat 08:37:33 AM 53.1990 2.4250 304° West 460 529 34,000  Level FlightAware ADS-B
Sat 08:38:13 AM 53.2460 2.3070 304° West 459 528 34,000  Level FlightAware ADS-B
Sat 08:38:54 AM 53.2940 2.1860 304° West 460 529 34,000  Level FlightAware ADS-B
Sat 08:39:40 AM 53.3470 2.0510 303° West 460 529 34,000  Level FlightAware ADS-B
Sat 08:40:20 AM 53.3940 1.9310 303° West 460 529 34,000  Level FlightAware ADS-B
Sat 08:41:01 AM 53.4420 1.8070 303° West 460 529 34,000  Level FlightAware ADS-B
Sat 08:41:19 AM 53.4632 1.7530 303° West 476 548 34,000  Level FlightAware UK
Sat 08:41:43 AM 53.4900 1.6830 303° West 462 532 34,000  Level FlightAware ADS-B
Sat 08:42:21 AM 53.5330 1.5720 303° West 461 531 34,000 -143 Level FlightAware ADS-B
Sat 08:42:25 AM 53.5393 1.5546 303° West 480 552 33,900  Descending FlightAware UK
Sat 08:42:55 AM 53.5740 1.4644 303° West 480 552 34,000 143 Climbing FlightAware UK
Sat 08:43:07 AM 53.5870 1.4300 303° West 462 532 34,000  Level FlightAware ADS-B
Sat 08:43:25 AM 53.6088 1.3741 303° West 480 552 34,000  Level FlightAware UK
Sat 08:43:50 AM 53.6350 1.3050 303° West 463 533 34,000  Level FlightAware ADS-B
Sat 08:44:13 AM 53.6637 1.2294 303° West 480 552 34,000  Level FlightAware UK
Sat 08:44:29 AM 53.6790 1.1880 303° West 464 534 34,000  Level FlightAware ADS-B
Sat 08:44:55 AM 53.7120 1.1014 303° West 478 550 34,000  Level FlightAware UK
Sat 08:45:15 AM 53.7340 1.0430 303° West 466 536 34,000  Level FlightAware ADS-B
Sat 08:45:36 AM 53.7601 0.9733 303° West 480 552 34,000  Level FlightAware UK
Sat 08:45:51 AM 53.7760 0.9300 303° West 466 536 34,000  Level FlightAware ADS-B
Sat 08:46:36 AM 53.8280 0.7920 303° West 467 537 34,000  Level FlightAware ADS-B
Sat 08:46:54 AM 53.8498 0.7336 303° West 484 557 34,000  Level FlightAware UK
Sat 08:47:16 AM 53.8740 0.6690 303° West 466 536 34,000  Level FlightAware ADS-B
Sat 08:47:54 AM 53.9179 0.5491 302° West 467 537 34,000  Level FlightAware ADS-B
Sat 08:48:30 AM 53.9594 0.4372 302° West 482 555 34,000  Level FlightAware UK
Sat 08:48:43 AM 53.9720 0.4030 302° West 468 539 34,000  Level FlightAware ADS-B
Sat 08:49:00 AM 53.9935 0.3438 302° West 482 555 34,000  Level FlightAware UK
Sat 08:49:25 AM 54.0210 0.2720 302° West 467 537 34,000 -125 Level FlightAware ADS-B
Sat 08:49:48 AM 54.0534 0.2016 302° West 480 552 33,900  Descending FlightAware UK
Sat 08:50:09 AM 54.0810 0.1480 302° West 464 534 34,000 98 Climbing FlightAware ADS-B
Sat 08:50:49 AM 54.1410 0.0370 313° West 464 534 34,000  Level FlightAware ADS-B
Sat 08:51:31 AM 54.2010 -0.0730 313° West 465 535 34,000  Level FlightAware ADS-B
Sat 08:52:15 AM 54.2650 -0.1940 312° West 466 536 34,000  Level FlightAware ADS-B
Sat 08:52:53 AM 54.3216 -0.3014 312° West 480 552 34,000  Level FlightAware UK
Sat 08:52:55 AM 54.3220 -0.3030 312° West 467 537 34,000  Level FlightAware ADS-B
Sat 08:53:29 AM 54.3737 -0.4003 312° West 482 555 34,000  Level FlightAware UK
Sat 08:53:33 AM 54.3770 -0.4080 312° West 468 539 34,000  Level FlightAware ADS-B
Sat 08:54:05 AM 54.4258 -0.4994 312° West 482 555 34,000  Level FlightAware UK
Sat 08:54:19 AM 54.4440 -0.5340 312° West 468 539 34,000  Level FlightAware ADS-B
Sat 08:55:01 AM 54.5050 -0.6510 312° West 468 539 34,000  Level FlightAware ADS-B
Sat 08:55:17 AM 54.5292 -0.6978 312° West 482 555 34,000  Level FlightAware UK
Sat 08:55:43 AM 54.5650 -0.7670 312° West 468 539 34,000  Level FlightAware ADS-B
Sat 08:55:59 AM 54.5896 -0.8144 312° West 482 555 34,000  Level FlightAware UK
Sat 08:56:27 AM 54.6300 -0.8920 312° West 468 539 34,000  Level FlightAware ADS-B
Sat 08:56:59 AM 54.6754 -0.9809 312° West 484 557 34,000  Level FlightAware UK
Sat 08:57:03 AM 54.6810 -0.9910 312° West 467 537 34,000  Level FlightAware ADS-B
Sat 08:57:41 AM 54.7351 -1.0977 312° West 484 557 34,000  Level FlightAware UK
Sat 08:57:49 AM 54.7460 -1.1190 312° West 466 536 34,000  Level FlightAware ADS-B
Sat 08:58:11 AM 54.7778 -1.1816 312° West 482 555 34,000  Level FlightAware UK
Sat 08:58:33 AM 54.8080 -1.2410 312° West 466 536 34,000  Level FlightAware ADS-B
Sat 08:59:14 AM 54.8640 -1.3510 312° West 464 534 34,000  Level FlightAware ADS-B
Sat 08:59:55 AM 54.9230 -1.4690 311° West 463 533 34,000  Level FlightAware ADS-B
Sat 09:00:39 AM 54.9840 -1.5900 311° West 461 531 34,000  Level FlightAware ADS-B
Sat 09:01:11 AM 55.0292 -1.6860 311° West 482 555 34,000  Level FlightAware UK
Sat 09:01:18 AM 55.0280 -1.6830 311° West 462 532 34,000  Level FlightAware ADS-B
Sat 09:01:46 AM 55.0679 -1.8010 311° West 480 552 34,000  Level FlightAware UK
Sat 09:02:03 AM 55.0830 -1.8510 311° West 464 534 34,000  Level FlightAware ADS-B
Sat 09:02:43 AM 55.1210 -1.9860 296° West 463 533 34,000  Level FlightAware ADS-B
Sat 09:03:09 AM 55.1450 -2.0700 297° West 463 533 34,000  Level FlightAware ADS-B
Sat 09:03:28 AM 55.1648 -2.1412 297° West 482 555 34,000  Level FlightAware UK
Sat 09:03:55 AM 55.1880 -2.2220 297° West 462 532 34,000  Level FlightAware ADS-B
Sat 09:04:35 AM 55.2270 -2.3600 296° West 462 532 34,000  Level FlightAware ADS-B
Sat 09:05:20 AM 55.2660 -2.5130 294° West 462 532 34,000 -72 Level FlightAware ADS-B
Sat 09:05:58 AM 55.2922 -2.6530 294° West 480 552 33,900  Descending FlightAware UK
Sat 09:06:00 AM 55.2930 -2.6570 294° West 462 532 34,000 150 Climbing FlightAware ADS-B
Sat 09:06:38 AM 55.3190 -2.7870 289° West 462 532 34,000  Level FlightAware ADS-B
Sat 09:07:16 AM 55.3470 -2.9275 289° West 480 552 34,000  Level FlightAware UK
Sat 09:07:24 AM 55.3520 -2.9480 289° West 462 532 34,000  Level FlightAware ADS-B
Sat 09:08:07 AM 55.3840 -3.1040 290° West 462 532 34,000 -79 Level FlightAware ADS-B
Sat 09:08:40 AM 55.4080 -3.2227 290° West 478 550 33,900  Descending FlightAware UK
Sat 09:08:43 AM 55.4100 -3.2320 290° West 463 533 34,000 118 Climbing FlightAware ADS-B
Sat 09:09:31 AM 55.4440 -3.4000 290° West 464 534 34,000  Level FlightAware ADS-B
Sat 09:10:03 AM 55.4672 -3.5204 290° West 478 550 34,000  Level FlightAware UK
Sat 09:10:11 AM 55.4710 -3.5450 290° West 465 535 34,000  Level FlightAware ADS-B
Sat 09:10:33 AM 55.4872 -3.6283 290° West 478 550 34,000  Level FlightAware UK
Sat 09:10:55 AM 55.5010 -3.7010 290° West 467 537 34,000  Level FlightAware ADS-B
Sat 09:11:37 AM 55.5300 -3.8550 288° West 468 539 34,000  Level FlightAware ADS-B
Sat 09:11:57 AM 55.5442 -3.9313 288° West 480 552 34,000  Level FlightAware UK
Sat 09:12:15 AM 55.5560 -3.9930 288° West 469 540 34,000  Level FlightAware ADS-B
Sat 09:12:57 AM 55.5845 -4.1491 288° West 478 550 34,000  Level FlightAware UK
Sat 09:12:57 AM 55.5840 -4.1450 288° West 470 541 34,000  Level FlightAware ADS-B
Sat 09:13:27 AM 55.6046 -4.2584 288° West 478 550 34,000  Level FlightAware UK
Sat 09:13:42 AM 55.6140 -4.3080 288° West 471 542 34,000  Level FlightAware ADS-B
Sat 09:14:24 AM 55.6410 -4.4560 288° West 472 543 34,000  Level FlightAware ADS-B
Sat 09:15:07 AM 55.6700 -4.6180 288° West 474 545 34,000  Level FlightAware ADS-B
Sat 09:15:45 AM 55.6962 -4.7654 288° West 482 555 34,000  Level FlightAware UK
Sat 09:15:47 AM 55.6970 -4.7700 288° West 475 547 34,000  Level FlightAware ADS-B
Sat 09:16:15 AM 55.7160 -4.8765 288° West 482 555 34,000  Level FlightAware UK
Sat 09:16:27 AM 55.7220 -4.9110 288° West 474 545 34,000  Level FlightAware ADS-B
Sat 09:17:10 AM 55.7490 -5.0650 287° West 473 544 34,000  Level FlightAware ADS-B
Sat 09:17:45 AM 55.7745 -5.2095 287° West 484 557 34,000  Level FlightAware UK
Sat 09:17:53 AM 55.7790 -5.2350 287° West 472 543 34,000  Level FlightAware ADS-B
Sat 09:18:34 AM 55.8050 -5.3850 287° West 471 542 34,000  Level FlightAware ADS-B
Sat 09:18:57 AM 55.8207 -5.4768 287° West 484 557 34,000  Level FlightAware UK
Sat 09:19:14 AM 55.8310 -5.5370 287° West 471 542 34,000  Level FlightAware ADS-B
Sat 09:19:57 AM 55.8587 -5.6996 287° West 484 557 34,000  Level FlightAware UK
Sat 09:19:59 AM 55.8590 -5.7010 287° West 471 542 34,000  Level FlightAware ADS-B
Sat 09:20:27 AM 55.8775 -5.8111 287° West 484 557 34,000  Level FlightAware UK
Sat 09:20:39 AM 55.8840 -5.8520 287° West 471 542 34,000  Level FlightAware ADS-B
Sat 09:21:20 AM 55.9100 -6.0040 287° West 473 544 34,000  Level FlightAware ADS-B
Sat 09:21:21 AM 55.9111 -6.0121 287° West 482 555 34,000 -194 Level FlightAware UK
Sat 09:21:51 AM 55.9296 -6.1240 287° West 482 555 33,900  Descending FlightAware UK
Sat 09:22:05 AM 55.9370 -6.1680 287° West 474 545 34,000 167 Climbing FlightAware ADS-B
Sat 09:22:27 AM 55.9516 -6.2577 287° West 482 555 34,000  Level FlightAware UK
Sat 09:22:50 AM 55.9650 -6.3400 287° West 473 544 34,000  Level FlightAware ADS-B
Sat 09:23:27 AM 55.9882 -6.4825 287° West 480 552 34,000  Level FlightAware UK
Sat 09:23:31 AM 55.9910 -6.4970 287° West 474 545 34,000  Level FlightAware ADS-B
Sat 09:23:57 AM 56.0065 -6.5952 287° West 482 555 34,000  Level FlightAware UK
Sat 09:24:11 AM 56.0150 -6.6470 287° West 475 547 34,000  Level FlightAware ADS-B
Sat 09:24:33 AM 56.0281 -6.7310 287° West 482 555 34,000  Level FlightAware UK
Sat 09:24:51 AM 56.0390 -6.7990 287° West 476 548 34,000  Level FlightAware ADS-B
Sat 09:25:09 AM 56.0497 -6.8669 287° West 480 552 34,000  Level FlightAware UK
Sat 09:25:32 AM 56.0620 -6.9470 287° West 476 548 34,000 -100 Level FlightAware ADS-B
Sat 09:26:09 AM 56.0855 -7.0942 287° West 482 555 33,900  Descending FlightAware UK
Sat 09:26:16 AM 56.0890 -7.1190 287° West 477 549 34,000 200 Climbing FlightAware ADS-B
Sat 09:26:39 AM 56.1031 -7.2081 287° West 482 555 34,000  Level FlightAware UK
Sat 09:26:56 AM 56.1130 -7.2710 287° West 478 550 34,000  Level FlightAware ADS-B
Sat 09:27:39 AM 56.1383 -7.4369 287° West 482 555 34,000  Level FlightAware UK
Sat 09:27:41 AM 56.1400 -7.4460 287° West 479 551 34,000  Level FlightAware ADS-B
Sat 09:28:14 AM 56.1592 -7.5738 287° West 484 557 34,000  Level FlightAware UK
Sat 09:28:21 AM 56.1630 -7.5960 287° West 477 549 34,000  Level FlightAware ADS-B
Sat 09:28:44 AM 56.1766 -7.6885 287° West 484 557 34,000  Level FlightAware UK
Sat 09:29:01 AM 56.1860 -7.7520 287° West 476 548 34,000  Level FlightAware ADS-B
Sat 09:29:26 AM 56.2006 -7.8492 287° West 484 557 34,000  Level FlightAware UK
Sat 09:29:46 AM 56.2110 -7.9210 287° West 476 548 34,000  Level FlightAware ADS-B
Sat 09:30:26 AM 56.2345 -8.0784 287° West 486 559 34,000  Level FlightAware UK
Sat 09:30:31 AM 56.2370 -8.0930 287° West 474 545 34,000  Level FlightAware ADS-B
Sat 09:30:56 AM 56.2513 -8.1930 287° West 484 557 34,000  Level FlightAware UK
Sat 09:31:11 AM 56.2590 -8.2430 287° West 474 545 34,000  Level FlightAware ADS-B
Sat 09:31:26 AM 56.2682 -8.3074 287° West 484 557 34,000  Level FlightAware UK
Sat 09:31:51 AM 56.2800 -8.3910 287° West 473 544 34,000 -100 Level FlightAware ADS-B
Sat 09:32:26 AM 56.3009 -8.5363 287° West 482 555 33,900  Descending FlightAware UK
Sat 09:32:31 AM 56.3030 -8.5540 287° West 474 545 34,000  Climbing FlightAware ADS-B
Sat 09:32:56 AM 56.3172 -8.6509 287° West 482 555 33,900  Descending FlightAware UK
Sat 09:33:12 AM 56.3250 -8.7090 287° West 474 545 34,000 98 Climbing FlightAware ADS-B
Sat 09:33:57 AM 56.3500 -8.8830 285° West 474 545 34,000  Level FlightAware ADS-B
Sat 09:34:43 AM 56.3740 -9.0570 284° West 474 545 34,000  Level FlightAware ADS-B
Sat 09:35:36 AM 56.4010 -9.2580 284° West 473 544 34,000  Level FlightAware ADS-B
Sat 09:36:16 AM 56.4230 -9.4140 284° West 473 544 34,000  Level FlightAware ADS-B
Sat 09:37:13 AM 56.4510 -9.6260 284° West 471 542 34,000  Level FlightAware ADS-B
Sat 09:37:58 AM 56.4730 -9.7970 283° West 471 542 34,000  Level FlightAware ADS-B
Sat 09:38:38 AM 56.4940 -9.9530 284° West 470 541 34,000  Level FlightAware ADS-B
Sat 09:39:18 AM 56.5140 -10.1050 283° West 470 541 34,000  Level FlightAware ADS-B
Sat 09:40:03 AM 56.5360 -10.2780 283° West 470 541 34,000  Level FlightAware ADS-B
Sat 09:40:43 AM 56.5550 -10.4310 283° West 470 541 34,000  Level FlightAware ADS-B
Sat 09:41:28 AM 56.5760 -10.5960 283° West 469 540 34,000  Level FlightAware ADS-B
Sat 09:42:08 AM 56.5940 -10.7410 283° West 469 540 34,000  Level FlightAware ADS-B
Sat 09:43:05 AM 56.6200 -10.9550 283° West 471 542 34,000  Level FlightAware ADS-B
Sat 09:43:41 AM 56.6330 -11.0730 281° West 471 542 34,000  Level FlightAware ADS-B
Sat 09:44:28 AM 56.6510 -11.2280 282° West 471 542 34,000  Level FlightAware ADS-B
Sat 09:45:29 AM 56.6750 -11.4290 282° West 471 542 34,000  Level FlightAware ADS-B
Sat 09:46:07 AM 56.6900 -11.5540 282° West 471 542 34,000  Level FlightAware ADS-B
Sat 09:46:52 AM 56.7070 -11.7030 282° West 471 542 34,000  Level FlightAware ADS-B
Sat 09:47:30 AM 56.7210 -11.8280 282° West 471 542 34,000  Level FlightAware ADS-B
Sat 09:48:18 AM 56.7400 -11.9870 282° West 471 542 34,000  Level FlightAware ADS-B
Sat 09:48:52 AM 56.7530 -12.0990 282° West 471 542 34,000  Level FlightAware ADS-B
Sat 09:49:38 AM 56.7710 -12.2510 282° West 471 542 34,000  Level FlightAware ADS-B
Sat 09:50:15 AM 56.7850 -12.3740 282° West 471 542 34,000  Level FlightAware ADS-B
Sat 09:51:03 AM 56.8030 -12.5330 282° West 471 542 34,000  Level FlightAware ADS-B
Sat 09:51:38 AM 56.8170 -12.6480 283° West 471 542 34,000  Level FlightAware ADS-B
Sat 09:52:26 AM 56.8350 -12.8070 282° West 471 542 34,000 85 Level FlightAware ADS-B
Sat 09:55:00 AM 56.9221 -13.3717 286° West  Level Estimated
Sat 09:56:00 AM 56.9553 -13.5925 286° West  Level Estimated
Sat 09:57:00 AM 56.9882 -13.8136 285° West  Level Estimated
Sat 09:58:00 AM 57.0206 -14.0351 285° West  Level Estimated
Sat 09:59:00 AM 57.0535 -14.2625 285° West  Level Estimated
Sat 10:00:00 AM 57.0859 -14.4903 285° West  Level Estimated
Sat 10:01:00 AM 57.1178 -14.7176 285° West  Level Estimated
Sat 10:02:00 AM 57.1492 -14.9448 284° West  Level Estimated
Sat 10:03:00 AM 57.1802 -15.1725 284° West  Level Estimated
Sat 10:04:00 AM 57.2108 -15.4004 284° West  Level Estimated
Sat 10:05:00 AM 57.2410 -15.6288 284° West  Level Estimated
Sat 10:06:00 AM 57.2708 -15.8576 284° West  Level Estimated
Sat 10:07:00 AM 57.3002 -16.0867 283° West  Level Estimated
Sat 10:08:00 AM 57.3291 -16.3161 283° West  Level Estimated
Sat 10:09:00 AM 57.3576 -16.5460 283° West  Level Estimated
Sat 10:10:00 AM 57.3857 -16.7762 283° West  Level Estimated
Sat 10:11:00 AM 57.4134 -17.0067 283° West  Level Estimated
Sat 10:12:00 AM 57.4407 -17.2376 282° West  Level Estimated
Sat 10:13:00 AM 57.4675 -17.4688 282° West  Level Estimated
Sat 10:14:00 AM 57.4939 -17.7004 282° West  Level Estimated
Sat 10:15:00 AM 57.5199 -17.9323 282° West  Level Estimated
Sat 10:16:00 AM 57.5454 -18.1645 282° West  Level Estimated
Sat 10:17:00 AM 57.5706 -18.3970 281° West  Level Estimated
Sat 10:18:00 AM 57.5953 -18.6299 281° West  Level Estimated
Sat 10:19:00 AM 57.6196 -18.8631 281° West  Level Estimated
Sat 10:20:00 AM 57.6434 -19.0966 281° West  Level Estimated
Sat 10:21:00 AM 57.6669 -19.3304 281° West  Level Estimated
Sat 10:22:00 AM 57.6898 -19.5645 281° West  Level Estimated
Sat 10:23:00 AM 57.7124 -19.7988 280° West  Level Estimated
Sat 10:24:00 AM 57.7345 -20.0335 280° West  Level Estimated
Sat 10:25:00 AM 57.7562 -20.2685 280° West  Level Estimated
Sat 10:26:00 AM 57.7775 -20.5037 280° West  Level Estimated
Sat 10:27:00 AM 57.7983 -20.7392 280° West  Level Estimated
Sat 10:27:00 AM 58.0000 -20.0000 295° West 484 557 37,000  Level ETMS Enhanced Traffic Management System
Sat 10:28:00 AM 57.8187 -20.9750 279° West  Level Estimated
Sat 10:28:27 AM 58.0000 -20.0000 295° West 484 557 37,000  Level ETMS Enhanced Traffic Management System
Sat 10:29:00 AM 57.8386 -21.2111 279° West  Level Estimated
Sat 10:30:00 AM 57.8581 -21.4474 279° West  Level Estimated
Sat 10:31:00 AM 57.8772 -21.6839 279° West  Level Estimated
Sat 10:32:00 AM 57.8958 -21.9207 279° West  Level Estimated
Sat 10:33:00 AM 58.6110 -22.5670 293° West 484 557 37,000  Level FlightAware Transoceanic
Sat 10:34:00 AM 58.6640 -22.8048 293° West 484 557 37,000  Level FlightAware Transoceanic
Sat 10:35:00 AM 58.7165 -23.0432 293° West 484 557 37,000  Level FlightAware Transoceanic
Sat 10:36:00 AM 58.7686 -23.2824 293° West 484 557 37,000  Level FlightAware Transoceanic
Sat 10:37:00 AM 58.8203 -23.5223 292° West 484 557 37,000  Level FlightAware Transoceanic
Sat 10:38:00 AM 58.8715 -23.7629 292° West 484 557 37,000  Level FlightAware Transoceanic
Sat 10:39:00 AM 58.9222 -24.0042 292° West 484 557 37,000  Level FlightAware Transoceanic
Sat 10:40:00 AM 58.9725 -24.2463 292° West 484 557 37,000  Level FlightAware Transoceanic
Sat 10:41:00 AM 59.0224 -24.4890 292° West 484 557 37,000  Level FlightAware Transoceanic
Sat 10:42:00 AM 59.0718 -24.7324 291° West 484 557 37,000  Level FlightAware Transoceanic
Sat 10:43:00 AM 59.1207 -24.9765 291° West 484 557 37,000  Level FlightAware Transoceanic
Sat 10:44:00 AM 59.1692 -25.2213 291° West 484 557 37,000  Level FlightAware Transoceanic
Sat 10:45:00 AM 59.2172 -25.4669 291° West 484 557 37,000  Level FlightAware Transoceanic
Sat 10:46:00 AM 59.2647 -25.7131 291° West 484 557 37,000  Level FlightAware Transoceanic
Sat 10:47:00 AM 59.3118 -25.9599 290° West 484 557 37,000  Level FlightAware Transoceanic
Sat 10:48:00 AM 59.3584 -26.2075 290° West 484 557 37,000  Level FlightAware Transoceanic
Sat 10:49:00 AM 59.4046 -26.4558 290° West 484 557 37,000  Level FlightAware Transoceanic
Sat 10:50:00 AM 59.4502 -26.7047 290° West 484 557 37,000  Level FlightAware Transoceanic
Sat 10:51:00 AM 59.4954 -26.9543 290° West 484 557 37,000  Level FlightAware Transoceanic
Sat 10:52:00 AM 59.5401 -27.2045 289° West 484 557 37,000  Level FlightAware Transoceanic
Sat 10:53:00 AM 59.5844 -27.4554 289° West 484 557 37,000  Level FlightAware Transoceanic
Sat 10:54:00 AM 59.6282 -27.7070 289° West 484 557 37,000  Level FlightAware Transoceanic
Sat 10:55:00 AM 59.6714 -27.9592 289° West 484 557 37,000  Level FlightAware Transoceanic
Sat 10:56:00 AM 59.7142 -28.2121 288° West 484 557 37,000  Level FlightAware Transoceanic
Sat 10:57:00 AM 59.7565 -28.4656 288° West 484 557 37,000  Level FlightAware Transoceanic
Sat 10:58:00 AM 59.7983 -28.7198 288° West 484 557 37,000  Level FlightAware Transoceanic
Sat 10:59:00 AM 59.8397 -28.9746 288° West 484 557 37,000  Level FlightAware Transoceanic
Sat 11:00:00 AM 59.8805 -29.2300 288° West 484 557 37,000  Level FlightAware Transoceanic
Sat 11:01:00 AM 59.9208 -29.4860 287° West 484 557 37,000  Level FlightAware Transoceanic
Sat 11:02:00 AM 59.9607 -29.7427 287° West 484 557 37,000  Level FlightAware Transoceanic
Sat 11:03:00 AM 59.9979 -29.9860 287° West  Level FlightAware Approximate
Sat 11:04:00 AM 60.0346 -30.2298 287° West  Level FlightAware Approximate
Sat 11:05:00 AM 60.0304 -30.2164 286° West  Level FlightAware Approximate
Sat 11:06:00 AM 60.0644 -30.4615 286° West  Level FlightAware Approximate
Sat 11:07:00 AM 60.0979 -30.7071 285° West  Level FlightAware Approximate
Sat 11:08:00 AM 60.1310 -30.9532 285° West  Level FlightAware Approximate
Sat 11:09:00 AM 60.1636 -31.1998 285° West  Level FlightAware Approximate
Sat 11:10:00 AM 60.1957 -31.4469 285° West  Level FlightAware Approximate
Sat 11:11:00 AM 60.2274 -31.6945 285° West  Level FlightAware Approximate
Sat 11:12:00 AM 60.2586 -31.9425 284° West  Level FlightAware Approximate
Sat 11:13:00 AM 60.2893 -32.1910 284° West  Level FlightAware Approximate
Sat 11:14:00 AM 60.3196 -32.4400 284° West  Level FlightAware Approximate
Sat 11:15:00 AM 60.3495 -32.6894 284° West  Level FlightAware Approximate
Sat 11:16:00 AM 60.3788 -32.9393 283° West  Level FlightAware Approximate
Sat 11:17:00 AM 60.4077 -33.1897 283° West  Level FlightAware Approximate
Sat 11:18:00 AM 60.4361 -33.4404 283° West  Level FlightAware Approximate
Sat 11:19:00 AM 60.4641 -33.6917 283° West  Level FlightAware Approximate
Sat 11:20:00 AM 60.4915 -33.9433 283° West  Level FlightAware Approximate
Sat 11:21:00 AM 60.5185 -34.1954 282° West  Level FlightAware Approximate
Sat 11:22:00 AM 60.5451 -34.4479 282° West  Level FlightAware Approximate
Sat 11:23:00 AM 60.5711 -34.7008 282° West  Level FlightAware Approximate
Sat 11:24:00 AM 60.5966 -34.9541 282° West  Level FlightAware Approximate
Sat 11:24:02 AM 60.6833 -35.5333 281° West 510 587 37,000  Level Gander Center
Sat 11:25:00 AM 60.6217 -35.2078 282° West  Level FlightAware Approximate
Sat 11:25:02 AM 60.7000 -35.8000 277° West 510 587 37,000  Level Gander Center
Sat 11:26:00 AM 60.6463 -35.4618 281° West  Level FlightAware Approximate
Sat 11:26:02 AM 60.7333 -36.1000 283° West 510 587 37,000  Level Gander Center
Sat 11:27:00 AM 60.6704 -35.7163 281° West  Level FlightAware Approximate
Sat 11:27:02 AM 60.7500 -36.3667 277° West 520 598 37,000  Level Gander Center
Sat 11:28:00 AM 60.6941 -35.9712 281° West  Level FlightAware Approximate
Sat 11:28:02 AM 60.7833 -36.6667 283° West 520 598 37,000  Level Gander Center
Sat 11:29:00 AM 60.7172 -36.2264 281° West  Level FlightAware Approximate
Sat 11:29:02 AM 60.8167 -36.9333 284° West 520 598 37,000  Level Gander Center
Sat 11:30:02 AM 60.8333 -37.2500 276° West 520 598 37,000  Level Gander Center
Sat 11:31:02 AM 60.8500 -37.5167 277° West 520 598 37,000  Level Gander Center
Sat 11:32:02 AM 60.8833 -37.8167 283° West 520 598 37,000  Level Gander Center
Sat 11:33:02 AM 60.8833 -38.1000 270° West 520 598 37,000  Level Gander Center
Sat 11:34:02 AM 60.9167 -38.4000 283° West 520 598 37,000  Level Gander Center
Sat 11:35:02 AM 60.9333 -38.6667 277° West 520 598 37,000  Level Gander Center
Sat 11:36:02 AM 60.9667 -38.9667 283° West 520 598 37,000  Level Gander Center
Sat 11:37:02 AM 60.9833 -39.2500 277° West 520 598 37,000  Level Gander Center
Sat 11:38:02 AM 61.0000 -39.5500 277° West 520 598 37,000  Level Gander Center
Sat 11:39:02 AM 61.0167 -39.8333 277° West 520 598 37,000  Level Gander Center
Sat 11:40:02 AM 61.0333 -40.1333 277° West 520 598 37,000  Level Gander Center
Sat 11:41:02 AM 61.0500 -40.4167 277° West 520 598 37,000  Level Gander Center
Sat 11:42:02 AM 61.0500 -40.7000 270° West 520 598 37,000  Level Gander Center
Sat 11:43:02 AM 61.0667 -41.0000 277° West 520 598 37,000  Level Gander Center
Sat 11:44:02 AM 61.0667 -41.2833 270° West 520 598 37,000  Level Gander Center
Sat 11:45:02 AM 61.0833 -41.6000 276° West 520 598 37,000  Level Gander Center
Sat 11:46:02 AM 61.0833 -41.8833 270° West 520 598 37,000  Level Gander Center
Sat 11:47:02 AM 61.0833 -42.1667 270° West 520 598 37,000  Level Gander Center
Sat 11:48:02 AM 61.1000 -42.4833 276° West 520 598 37,000  Level Gander Center
Sat 11:49:02 AM 61.1000 -42.7500 270° West 520 598 37,000  Level Gander Center
Sat 11:50:02 AM 61.1167 -43.0667 276° West 520 598 37,000  Level Gander Center
Sat 11:51:02 AM 61.1167 -43.3500 270° West 520 598 37,000  Level Gander Center
Sat 11:52:02 AM 61.1167 -43.6333 270° West 520 598 37,000  Level Gander Center
Sat 11:53:02 AM 61.1167 -43.9500 270° West 520 598 37,000  Level Gander Center
Sat 11:54:02 AM 61.1000 -44.2333 263° West 520 598 37,000  Level Gander Center
Sat 11:55:02 AM 61.1167 -44.5167 277° West 510 587 37,000  Level Gander Center
Sat 11:56:02 AM 61.1167 -44.8333 270° West 510 587 37,000  Level Gander Center
Sat 11:57:02 AM 61.1000 -45.1167 263° West 520 598 37,000  Level Gander Center
Sat 11:58:02 AM 61.1000 -45.4000 270° West 520 598 37,000  Level Gander Center
Sat 11:59:02 AM 61.1000 -45.7167 270° West 510 587 37,000  Level Gander Center
Sat 12:00:02 PM 61.1000 -46.0000 270° West 510 587 37,000  Level Gander Center
Sat 12:01:02 PM 61.1000 -46.2833 270° West 510 587 37,000  Level Gander Center
Sat 12:02:02 PM 61.1000 -46.5500 270° West 510 587 37,000  Level Gander Center
Sat 12:03:02 PM 61.1000 -46.8667 270° West 510 587 37,000  Level Gander Center
Sat 12:04:02 PM 61.1000 -47.1500 270° West 510 587 37,000  Level Gander Center
Sat 12:05:02 PM 61.0833 -47.4333 263° West 510 587 37,000  Level Gander Center
Sat 12:06:02 PM 61.0833 -47.7167 270° West 510 587 37,000  Level Gander Center
Sat 12:07:02 PM 61.0833 -48.0333 270° West 510 587 37,000  Level Gander Center
Sat 12:08:02 PM 61.0667 -48.3167 263° West 510 587 37,000  Level Gander Center
Sat 12:09:02 PM 61.0667 -48.6000 270° West 500 575 37,000  Level Gander Center
Sat 12:10:02 PM 61.0500 -48.8833 263° West 500 575 37,000  Level Gander Center
Sat 12:11:02 PM 61.0500 -49.2000 270° West 500 575 37,000  Level Gander Center
Sat 12:12:02 PM 61.0333 -49.4333 262° West 500 575 37,000  Level Gander Center
Sat 12:13:02 PM 61.0167 -49.7167 263° West 510 587 37,000  Level Gander Center
Sat 12:14:02 PM 61.0167 -50.0333 270° West 510 587 37,000  Level Gander Center
Sat 12:15:02 PM 61.0000 -50.3167 263° West 510 587 37,000  Level Gander Center
Sat 12:16:02 PM 60.9833 -50.6000 263° West 510 587 37,000  Level Gander Center
Sat 12:17:02 PM 60.9667 -50.8833 263° West 510 587 37,000  Level Gander Center
Sat 12:18:02 PM 60.9500 -51.1667 263° West 510 587 37,000  Level Gander Center
Sat 12:19:02 PM 60.9167 -51.4500 257° West 510 587 37,000  Level Gander Center
Sat 12:20:02 PM 60.9167 -51.7667 270° West 510 587 37,000  Level Gander Center
Sat 12:21:02 PM 60.8833 -52.0500 257° West 510 587 37,000  Level Gander Center
Sat 12:21:30 PM 60.8667 -52.1833 256° West 500 575 37,000  Level Gander Center
Sat 12:22:30 PM 60.8500 -52.4667 263° West 500 575 37,000  Level Gander Center
Sat 12:23:30 PM 60.8167 -52.7500 257° West 500 575 37,000  Level Gander Center
Sat 12:24:02 PM 60.8167 -52.8833 270° West 500 575 37,000  Level Gander Center
Sat 12:25:02 PM 60.8000 -53.1667 263° West 500 575 37,000  Level Gander Center
Sat 12:26:02 PM 60.7667 -53.4500 257° West 510 587 37,000  Level Gander Center
Sat 12:26:30 PM 60.7500 -53.5833 256° West 510 587 37,000  Level Gander Center
Sat 12:27:30 PM 60.7333 -53.8667 263° West 510 587 37,000  Level Gander Center
Sat 12:28:30 PM 60.7000 -54.1500 257° West 500 575 37,000  Level Gander Center
Sat 12:29:30 PM 60.6833 -54.4167 263° West 500 575 37,000  Level Gander Center
Sat 12:30:02 PM 60.6667 -54.5500 256° West 500 575 37,000  Level Gander Center
Sat 12:30:30 PM 60.6667 -54.7000 270° West 500 575 37,000  Level Gander Center
Sat 12:31:30 PM 60.6167 -54.9667 249° West 500 575 37,000  Level Gander Center
Sat 12:32:30 PM 60.6000 -55.2500 263° West 510 587 37,000  Level Gander Center
Sat 12:33:30 PM 60.5667 -55.5333 257° West 510 587 37,000  Level Gander Center
Sat 12:34:30 PM 60.5500 -55.8333 264° West 510 587 37,000  Level Gander Center
Sat 12:35:30 PM 60.5000 -56.1167 250° West 510 587 37,000  Level Gander Center
Sat 12:36:30 PM 60.4833 -56.3833 263° West 500 575 37,000  Level Gander Center
Sat 12:37:30 PM 60.4500 -56.6333 255° West 500 575 37,000  Level Gander Center
Sat 12:38:30 PM 60.4167 -56.9000 256° West 500 575 37,000  Level Gander Center
Sat 12:39:30 PM 60.3833 -57.1833 257° West 500 575 37,000  Level Gander Center
Sat 12:40:30 PM 60.3500 -57.4500 256° West 490 564 37,000  Level Gander Center
Sat 12:41:02 PM 60.3333 -57.6167 259° West 500 575 37,000  Level Gander Center
Sat 12:41:30 PM 60.3167 -57.7167 251° West 500 575 37,000  Level Gander Center
Sat 12:42:30 PM 60.3000 -58.0000 263° West 500 575 37,000  Level Gander Center
Sat 12:43:02 PM 60.2667 -58.1667 248° West 500 575 37,000  Level Gander Center
Sat 12:44:02 PM 60.2333 -58.4333 256° West 490 564 37,000  Level Gander Center
Sat 12:44:30 PM 60.2167 -58.5333 251° West 490 564 37,000 68 Level Gander Center
Sat 12:45:30 PM 60.2000 -58.8000 263° West 490 564 37,100 196 Climbing Gander Center
Sat 12:46:02 PM 60.1667 -58.9500 246° West 490 564 37,300 391 Climbing Gander Center
Sat 12:47:02 PM 60.1333 -59.2167 256° West 500 575 37,700 350 Climbing Gander Center
Sat 12:48:02 PM 60.0833 -59.4833 249° West 500 575 38,000 150 Climbing Gander Center
Sat 12:49:02 PM 60.0667 -59.7500 263° West 500 575 38,000  Level Gander Center
Sat 12:49:30 PM 60.0500 -59.8500 252° West 500 575 38,000  Level Gander Center
Sat 12:50:02 PM 60.0333 -60.0167 259° West 500 575 38,000  Level Gander Center
Sat 12:50:30 PM 60.0000 -60.1167 236° Southwest 500 575 38,000  Level Gander Center
Sat 12:51:02 PM 59.9833 -60.2833 259° West 500 575 38,000  Level Gander Center
Sat 12:52:02 PM 59.9333 -60.5500 250° West 490 564 38,000  Level Gander Center
Sat 12:52:30 PM 59.9167 -60.6500 252° West 490 564 38,000  Level Gander Center
Sat 12:53:30 PM 59.8833 -60.8833 254° West 490 564 38,000  Level Gander Center
Sat 12:54:30 PM 59.8333 -61.1500 250° West 490 564 38,000  Level Gander Center
Sat 12:55:30 PM 59.7833 -61.3833 247° West 490 564 38,000  Level Gander Center
Sat 12:56:30 PM 59.7500 -61.6500 256° West 490 564 38,000  Level Gander Center
Sat 12:57:30 PM 59.7167 -61.9500 258° West 490 564 38,000  Level Gander Center
Sat 12:58:30 PM 59.6667 -62.1667 246° West 480 552 38,000  Level Gander Center
Sat 12:59:30 PM 59.6167 -62.4333 250° West 480 552 38,000  Level Gander Center
Sat 01:00:30 PM 59.5667 -62.7000 250° West 480 552 38,000  Level Gander Center
Sat 01:01:02 PM 59.5500 -62.8000 252° West 480 552 38,000  Level Gander Center
Sat 01:01:30 PM 59.5333 -62.9167 254° West 480 552 38,000  Level Gander Center
Sat 01:02:30 PM 59.4667 -63.1500 241° Southwest 480 552 38,000  Level Gander Center
Sat 01:03:02 PM 59.4500 -63.3167 259° West 480 552 38,000  Level Gander Center
Sat 01:04:02 PM 59.4167 -63.5333 253° West 480 552 38,000  Level Gander Center
Sat 01:04:30 PM 59.3833 -63.6667 244° Southwest 480 552 38,000  Level Gander Center
Sat 01:04:48 PM 59.3667 -63.6833 207° Southwest 480 552 38,000  Level Montreal Center
Sat 01:05:30 PM 59.3500 -63.9000 262° West 480 552 38,000  Level Gander Center
Sat 01:06:30 PM 59.2833 -64.1500 243° Southwest 480 552 38,000  Level Gander Center
Sat 01:06:48 PM 59.2833 -64.1833 270° West 470 541 38,000  Level Montreal Center
Sat 01:07:30 PM 59.2500 -64.3833 252° West 480 552 38,000  Level Gander Center
Sat 01:08:30 PM 59.2167 -64.6333 255° West 480 552 38,000  Level Gander Center
Sat 01:09:30 PM 59.1500 -64.8500 239° Southwest 470 541 38,000  Level Gander Center
Sat 01:10:30 PM 59.1167 -65.1167 256° West 470 541 38,000  Level Gander Center
Sat 01:11:30 PM 59.0500 -65.3667 243° Southwest 480 552 38,000  Level Gander Center
Sat 01:12:30 PM 59.0000 -65.5833 246° West 480 552 38,000  Level Gander Center
Sat 01:13:02 PM 58.9833 -65.7167 256° West 480 552 38,000  Level Gander Center
Sat 01:13:30 PM 58.9667 -65.8333 255° West 480 552 38,000  Level Gander Center
Sat 01:14:02 PM 58.9333 -65.9667 244° Southwest 480 552 38,000  Level Gander Center
Sat 01:15:02 PM 58.8833 -66.1833 246° West 480 552 38,000  Level Gander Center
Sat 01:15:48 PM 58.8500 -66.3167 244° Southwest 480 552 38,000  Level Montreal Center
Sat 01:16:30 PM 58.8167 -66.5667 256° West 480 552 38,000  Level Gander Center
Sat 01:17:30 PM 58.7500 -66.7833 239° Southwest 480 552 38,000  Level Gander Center
Sat 01:17:48 PM 58.7500 -66.8000 270° West 480 552 38,000  Level Montreal Center
Sat 01:18:48 PM 58.6667 -67.0167 234° Southwest 480 552 38,000  Level Montreal Center
Sat 01:19:48 PM 58.6000 -67.2333 240° Southwest 480 552 38,000  Level Montreal Center
Sat 01:20:48 PM 58.5167 -67.4167 229° Southwest 480 552 38,000  Level Montreal Center
Sat 01:21:30 PM 58.4500 -67.6333 240° Southwest 480 552 38,000  Level Gander Center
Sat 01:22:30 PM 58.3833 -67.8000 233° Southwest 480 552 38,000  Level Gander Center
Sat 01:22:48 PM 58.3500 -67.8333 208° Southwest 480 552 38,000  Level Montreal Center
Sat 01:23:48 PM 58.2667 -68.0167 229° Southwest 480 552 38,000  Level Montreal Center
Sat 01:24:48 PM 58.1833 -68.2333 234° Southwest 470 541 38,000  Level Montreal Center
Sat 01:25:48 PM 58.1167 -68.4000 233° Southwest 470 541 38,000  Level Montreal Center
Sat 01:26:25 PM 58.0500 -68.5500 230° Southwest 470 541 38,000  Level Montreal Center
Sat 01:27:25 PM 57.9667 -68.7500 232° Southwest 470 541 38,000  Level Montreal Center
Sat 01:28:25 PM 57.8833 -68.9333 230° Southwest 470 541 38,000  Level Montreal Center
Sat 01:29:25 PM 57.8000 -69.1333 232° Southwest 470 541 38,000  Level Montreal Center
Sat 01:30:25 PM 57.7167 -69.3167 230° Southwest 470 541 38,000  Level Montreal Center
Sat 01:31:25 PM 57.6333 -69.5167 232° Southwest 470 541 38,000  Level Montreal Center
Sat 01:32:25 PM 57.5500 -69.6833 227° Southwest 470 541 38,000  Level Montreal Center
Sat 01:33:25 PM 57.4667 -69.8833 232° Southwest 470 541 38,000  Level Montreal Center
Sat 01:34:25 PM 57.3833 -70.0667 230° Southwest 470 541 38,000  Level Montreal Center
Sat 01:35:25 PM 57.2833 -70.2667 227° Southwest 470 541 38,000  Level Montreal Center
Sat 01:36:25 PM 57.2000 -70.4333 227° Southwest 470 541 38,000  Level Montreal Center
Sat 01:37:25 PM 57.1167 -70.6333 233° Southwest 470 541 38,000  Level Montreal Center
Sat 01:38:25 PM 57.0333 -70.8000 227° Southwest 470 541 38,000  Level Montreal Center
Sat 01:39:25 PM 56.9500 -71.0000 233° Southwest 470 541 38,000  Level Montreal Center
Sat 01:40:25 PM 56.8500 -71.1833 225° Southwest 470 541 38,000  Level Montreal Center
Sat 01:41:25 PM 56.7667 -71.3500 228° Southwest 470 541 38,000  Level Montreal Center
Sat 01:42:25 PM 56.6833 -71.5500 233° Southwest 470 541 38,000  Level Montreal Center
Sat 01:43:25 PM 56.6000 -71.7167 228° Southwest 470 541 38,000  Level Montreal Center
Sat 01:44:25 PM 56.5000 -71.9000 225° Southwest 480 552 38,000  Level Montreal Center
Sat 01:45:25 PM 56.4333 -72.1000 239° Southwest 470 541 38,000  Level Montreal Center
Sat 01:46:25 PM 56.3333 -72.2500 220° Southwest 470 541 38,000  Level Montreal Center
Sat 01:47:25 PM 56.2333 -72.4167 223° Southwest 470 541 38,000  Level Montreal Center
Sat 01:48:25 PM 56.1500 -72.6000 231° Southwest 470 541 38,000  Level Montreal Center
Sat 01:49:25 PM 56.0667 -72.7667 228° Southwest 470 541 38,000  Level Montreal Center
Sat 01:50:25 PM 55.9667 -72.9500 226° Southwest 480 552 38,000  Level Montreal Center
Sat 01:51:25 PM 55.8833 -73.1333 231° Southwest 470 541 38,000  Level Montreal Center
Sat 01:52:25 PM 55.7833 -73.3000 223° Southwest 470 541 38,000  Level Montreal Center
Sat 01:53:25 PM 55.7000 -73.4833 231° Southwest 470 541 38,000  Level Montreal Center
Sat 01:54:25 PM 55.6000 -73.6333 220° Southwest 470 541 38,000  Level Montreal Center
Sat 01:55:25 PM 55.5333 -73.8167 237° Southwest 470 541 38,000  Level Montreal Center
Sat 01:56:25 PM 55.4333 -73.9667 220° Southwest 470 541 38,000  Level Montreal Center
Sat 01:57:25 PM 55.3500 -74.1500 231° Southwest 470 541 38,000  Level Montreal Center
Sat 01:58:25 PM 55.2500 -74.3167 224° Southwest 470 541 38,000  Level Montreal Center
Sat 01:59:25 PM 55.1667 -74.4833 229° Southwest 470 541 38,000  Level Montreal Center
Sat 02:00:25 PM 55.0667 -74.6333 221° Southwest 470 541 38,000  Level Montreal Center
Sat 02:01:25 PM 54.9667 -74.8167 227° Southwest 480 552 38,000  Level Montreal Center
Sat 02:02:25 PM 54.8667 -74.9667 221° Southwest 470 541 38,000  Level Montreal Center
Sat 02:03:25 PM 54.7833 -75.1500 232° Southwest 470 541 38,000  Level Montreal Center
Sat 02:04:25 PM 54.6833 -75.3000 221° Southwest 470 541 38,000  Level Montreal Center
Sat 02:05:25 PM 54.5833 -75.4167 214° Southwest 470 541 38,000  Level Montreal Center
Sat 02:06:25 PM 54.4833 -75.5500 218° Southwest 470 541 38,000  Level Montreal Center
Sat 02:07:25 PM 54.3833 -75.7000 221° Southwest 470 541 38,000  Level Montreal Center
Sat 02:08:25 PM 54.2667 -75.8500 217° Southwest 470 541 38,000  Level Montreal Center
Sat 02:09:25 PM 54.1667 -75.9667 214° Southwest 470 541 38,000  Level Montreal Center
Sat 02:10:25 PM 54.0667 -76.1000 218° Southwest 470 541 38,000  Level Montreal Center
Sat 02:11:25 PM 53.9667 -76.2500 221° Southwest 460 529 38,000  Level Montreal Center
Sat 02:12:25 PM 53.8667 -76.3833 218° Southwest 470 541 38,000  Level Montreal Center
Sat 02:13:25 PM 53.7500 -76.5333 217° Southwest 470 541 38,000  Level Montreal Center
Sat 02:14:25 PM 53.6333 -76.6500 211° Southwest 460 529 38,000  Level Montreal Center
Sat 02:15:25 PM 53.5333 -76.7833 218° Southwest 470 541 38,000  Level Montreal Center
Sat 02:16:25 PM 53.4333 -76.9167 218° Southwest 470 541 38,000  Level Montreal Center
Sat 02:17:25 PM 53.3333 -77.0667 222° Southwest 470 541 38,000  Level Montreal Center
Sat 02:18:25 PM 53.2333 -77.1667 211° Southwest 460 529 38,000  Level Montreal Center
Sat 02:19:25 PM 53.1333 -77.3167 222° Southwest 470 541 38,000  Level Montreal Center
Sat 02:20:25 PM 53.0333 -77.4500 219° Southwest 470 541 38,000  Level Montreal Center
Sat 02:21:25 PM 52.9333 -77.5500 211° Southwest 460 529 38,000  Level Montreal Center
Sat 02:22:25 PM 52.8167 -77.6833 215° Southwest 460 529 38,000  Level Montreal Center
Sat 02:23:25 PM 52.7167 -77.8333 222° Southwest 460 529 38,000  Level Montreal Center
Sat 02:24:25 PM 52.6167 -77.9667 219° Southwest 460 529 38,000  Level Montreal Center
Sat 02:25:25 PM 52.5167 -78.0667 211° Southwest 460 529 38,000  Level Montreal Center
Sat 02:26:25 PM 52.4167 -78.2000 219° Southwest 460 529 38,000  Level Montreal Center
Sat 02:27:25 PM 52.3000 -78.3333 215° Southwest 460 529 38,000  Level Montreal Center
Sat 02:28:25 PM 52.1833 -78.4667 215° Southwest 460 529 38,000  Level Montreal Center
Sat 02:29:25 PM 52.0833 -78.5667 212° Southwest 460 529 38,000  Level Montreal Center
Sat 02:30:25 PM 51.9833 -78.7000 219° Southwest 460 529 38,000  Level Montreal Center
Sat 02:31:25 PM 51.8833 -78.8333 219° Southwest 460 529 38,000  Level Montreal Center
Sat 02:32:25 PM 51.7667 -78.9333 208° Southwest 460 529 38,000  Level Montreal Center
Sat 02:33:25 PM 51.6667 -79.0667 220° Southwest 460 529 38,000  Level Montreal Center
Sat 02:34:25 PM 51.5667 -79.1833 216° Southwest 460 529 38,000  Level Montreal Center
Sat 02:35:25 PM 51.4667 -79.2833 212° Southwest 460 529 38,000  Level Montreal Center
Sat 02:36:25 PM 51.3500 -79.4167 216° Southwest 460 529 38,000  Level Montreal Center
Sat 02:37:25 PM 51.2500 -79.5500 220° Southwest 460 529 38,000  Level Montreal Center
Sat 02:38:25 PM 51.1833 -79.7000 235° Southwest 450 518 38,000  Level Montreal Center
Sat 02:39:25 PM 51.1333 -79.8833 247° West 460 529 38,000  Level Montreal Center
Sat 02:40:25 PM 51.0833 -80.0833 248° West 460 529 38,000  Level Montreal Center
Sat 02:41:25 PM 51.0333 -80.2833 248° West 460 529 38,000  Level Montreal Center
Sat 02:42:25 PM 50.9833 -80.4500 245° Southwest 460 529 38,000  Level Montreal Center
Sat 02:43:25 PM 50.9333 -80.6333 247° West 460 529 38,000  Level Montreal Center
Sat 02:43:25 PM 50.9333 -80.6333 247° West 470 541 38,000  Level Toronto Center
Sat 02:44:25 PM 50.8833 -80.8167 247° West 470 541 38,000  Level Toronto Center
Sat 02:45:25 PM 50.8333 -81.0000 247° West 470 541 38,000  Level Toronto Center
Sat 02:46:25 PM 50.7833 -81.2000 248° West 470 541 38,000  Level Toronto Center
Sat 02:47:25 PM 50.7500 -81.3833 254° West 470 541 38,000  Level Toronto Center
Sat 02:48:25 PM 50.7000 -81.5667 247° West 470 541 38,000  Level Toronto Center
Sat 02:49:25 PM 50.6500 -81.7500 247° West 470 541 38,000  Level Toronto Center
Sat 02:50:25 PM 50.6000 -81.9333 247° West 470 541 38,000  Level Toronto Center
Sat 02:51:25 PM 50.5500 -82.1500 250° West 470 541 38,000  Level Toronto Center
Sat 02:52:25 PM 50.5000 -82.3167 245° Southwest 470 541 38,000  Level Toronto Center
Sat 02:53:25 PM 50.4667 -82.5333 256° West 470 541 38,000  Level Toronto Center
Sat 02:54:25 PM 50.4167 -82.7333 249° West 460 529 38,000  Level Montreal Center
Sat 02:55:25 PM 50.3667 -82.9333 249° West 460 529 38,000  Level Montreal Center
Sat 02:56:25 PM 50.3167 -83.1167 247° West 470 541 38,000  Level Montreal Center
Sat 02:57:25 PM 50.2833 -83.3167 255° West 470 541 38,000  Level Montreal Center
Sat 02:58:25 PM 50.2333 -83.5167 249° West 470 541 38,000  Level Montreal Center
Sat 02:59:25 PM 50.1833 -83.7000 247° West 470 541 38,000  Level Montreal Center
Sat 03:00:25 PM 50.1333 -83.9000 249° West 470 541 38,000  Level Montreal Center
Sat 03:01:25 PM 50.0667 -84.0500 235° Southwest 470 541 38,000  Level Montreal Center
Sat 03:02:25 PM 49.9333 -84.1333 202° Southwest 470 541 38,000  Level Montreal Center
Sat 03:03:25 PM 49.8000 -84.1667 189° South 480 552 38,000  Level Montreal Center
Sat 03:04:25 PM 49.6833 -84.1667 180° South 480 552 38,000  Level Montreal Center
Sat 03:05:25 PM 49.5333 -84.1667 180° South 480 552 38,000  Level Montreal Center
Sat 03:06:25 PM 49.4167 -84.1667 180° South 480 552 38,000  Level Montreal Center
Sat 03:07:25 PM 49.2667 -84.2000 188° South 480 552 38,000  Level Montreal Center
Sat 03:08:25 PM 49.1333 -84.2000 180° South 480 552 38,000  Level Montreal Center
Sat 03:09:25 PM 49.0000 -84.2000 180° South 480 552 38,000  Level Montreal Center
Sat 03:10:25 PM 48.8667 -84.2000 180° South 480 552 38,000  Level Montreal Center
Sat 03:11:25 PM 48.7333 -84.2000 180° South 480 552 38,000  Level Montreal Center
Sat 03:12:26 PM 48.6000 -84.2167 185° South 470 541 38,000  Level Montreal Center
Sat 03:13:26 PM 48.4833 -84.2333 185° South 460 529 38,000  Level Montreal Center
Sat 03:14:26 PM 48.3333 -84.2500 184° South 460 529 38,000  Level Montreal Center
Sat 03:15:26 PM 48.2167 -84.2500 180° South 460 529 38,000  Level Montreal Center
Sat 03:16:26 PM 48.0833 -84.2500 180° South 450 518 38,000  Level Montreal Center
Sat 03:17:26 PM 47.9667 -84.2500 180° South 450 518 38,000  Level Montreal Center
Sat 03:18:26 PM 47.8333 -84.2667 185° South 450 518 38,000  Level Montreal Center
Sat 03:19:26 PM 47.7167 -84.2667 180° South 450 518 38,000  Level Montreal Center
Sat 03:20:26 PM 47.6000 -84.2667 180° South 450 518 38,000  Level Montreal Center
Sat 03:21:26 PM 47.4667 -84.3000 190° South 450 518 38,000  Level Montreal Center
Sat 03:22:26 PM 47.3333 -84.3000 180° South 450 518 38,000  Level Montreal Center
Sat 03:23:26 PM 47.2000 -84.3000 180° South 450 518 38,000  Level Montreal Center
Sat 03:24:26 PM 47.0833 -84.3167 186° South 450 518 38,000  Level Montreal Center
Sat 03:25:26 PM 46.9667 -84.3167 180° South 450 518 38,000  Level Montreal Center
Sat 03:26:25 PM 46.8333 -84.2833 170° South 450 518 38,000  Level Toronto Center
Sat 03:27:25 PM 46.7000 -84.3000 185° South 460 529 38,000  Level Toronto Center
Sat 03:28:25 PM 46.5833 -84.2833 174° South 460 529 38,000  Level Toronto Center
Sat 03:29:25 PM 46.4500 -84.3000 185° South 460 529 38,000  Level Toronto Center
Sat 03:30:25 PM 46.3333 -84.3500 196° South 460 529 38,000  Level Toronto Center
Sat 03:36:27 PM 45.6090 -84.5900 196° South 435 501 38,000  Level FlightAware ADS-B
Sat 03:37:10 PM 45.5240 -84.6190 193° South 434 499 38,000  Level FlightAware ADS-B
Sat 03:37:47 PM 45.4560 -84.6420 193° South 433 498 38,000 -148 Level FlightAware ADS-B
Sat 03:38:31 PM 45.3670 -84.6720 193° South 430 495 37,800 -703 Descending FlightAware ADS-B
Sat 03:40:12 PM 45.1810 -84.7330 193° South 439 505 36,300 -1,049 Descending FlightAware ADS-B
Sat 03:40:54 PM 45.0870 -84.7650 194° South 434 499 35,300 -1,275 Descending FlightAware ADS-B
Sat 03:41:32 PM 45.0110 -84.7900 193° South 438 504 34,600 -935 Descending FlightAware ADS-B
Sat 03:42:11 PM 44.9380 -84.8140 193° South 437 503 34,100 -933 Descending FlightAware ADS-B
Sat 03:43:02 PM 44.8350 -84.8480 193° South 440 506 33,200 -989 Descending FlightAware ADS-B
Sat 03:43:42 PM 44.7540 -84.8750 193° South 441 507 32,600 -889 Descending FlightAware ADS-B
Sat 03:44:23 PM 44.6740 -84.9010 193° South 443 510 32,000 -434 Descending FlightAware ADS-B
Sat 03:45:05 PM 44.5890 -84.9280 193° South 445 512 32,000  Level FlightAware ADS-B
Sat 03:45:48 PM 44.5030 -84.9560 193° South 445 512 32,000  Level FlightAware ADS-B
Sat 03:46:29 PM 44.4230 -84.9820 193° South 446 513 32,000  Level FlightAware ADS-B
Sat 03:47:11 PM 44.3360 -85.0100 193° South 448 516 32,000  Level FlightAware ADS-B
Sat 03:47:54 PM 44.2490 -85.0380 193° South 446 513 32,000  Level FlightAware ADS-B
Sat 03:48:37 PM 44.1630 -85.0660 193° South 445 512 32,000  Level FlightAware ADS-B
Sat 03:49:14 PM 44.0890 -85.0900 193° South 443 510 32,000  Level FlightAware ADS-B
Sat 03:50:01 PM 43.9960 -85.1200 193° South 442 509 32,000  Level FlightAware ADS-B
Sat 03:50:41 PM 43.9150 -85.1450 193° South 441 507 32,000  Level FlightAware ADS-B
Sat 03:51:26 PM 43.8260 -85.1730 193° South 441 507 32,000  Level FlightAware ADS-B
Sat 03:52:05 PM 43.7490 -85.1980 193° South 441 507 32,000  Level FlightAware ADS-B
Sat 03:52:48 PM 43.6620 -85.2250 193° South 443 510 32,000  Level FlightAware ADS-B
Sat 03:53:28 PM 43.5820 -85.2510 193° South 444 511 32,000  Level FlightAware ADS-B
Sat 03:54:13 PM 43.4930 -85.2780 192° South 445 512 32,000  Level FlightAware ADS-B
Sat 03:54:53 PM 43.4180 -85.3050 195° South 439 505 32,000 -434 Level FlightAware ADS-B
Sat 03:55:36 PM 43.3370 -85.3590 206° Southwest 413 475 31,400 -1,429 Descending FlightAware ADS-B
Sat 03:56:17 PM 43.2770 -85.4240 218° Southwest 413 475 30,000 -1,624 Descending FlightAware ADS-B
Sat 03:57:01 PM 43.2110 -85.4960 218° Southwest 427 491 29,100 -1,301 Descending FlightAware ADS-B
Sat 03:57:40 PM 43.1480 -85.5640 218° Southwest 427 491 28,200 -1,169 Descending FlightAware ADS-B
Sat 03:58:18 PM 43.1040 -85.6100 217° Southwest 423 487 27,600 -1,256 Descending FlightAware ADS-B
Sat 03:59:06 PM 43.0170 -85.7020 218° Southwest 407 468 26,400 -1,400 Descending FlightAware ADS-B
Sat 03:59:48 PM 42.9550 -85.7680 218° Southwest 396 456 25,500 -1,185 Descending FlightAware ADS-B
Sat 04:00:27 PM 42.9010 -85.8260 218° Southwest 389 448 24,800 -1,186 Descending FlightAware ADS-B
Sat 04:01:14 PM 42.8330 -85.8970 217° Southwest 382 440 23,800 -1,241 Descending FlightAware ADS-B
Sat 04:01:54 PM 42.7770 -85.9560 218° Southwest 379 436 23,000 -1,275 Descending FlightAware ADS-B
Sat 04:02:34 PM 42.7340 -86.0250 230° Southwest 365 420 22,100 -1,429 Descending FlightAware ADS-B
Sat 04:03:18 PM 42.7080 -86.1200 250° West 359 413 21,000 -1,446 Descending FlightAware ADS-B
Sat 04:03:57 PM 42.6880 -86.2010 251° West 354 407 20,100 -1,357 Descending FlightAware ADS-B
Sat 04:04:42 PM 42.6640 -86.2960 251° West 348 400 19,100 -1,341 Descending FlightAware ADS-B
Sat 04:05:22 PM 42.6430 -86.3790 251° West 345 397 18,200 -1,412 Descending FlightAware ADS-B
Sat 04:06:07 PM 42.6200 -86.4690 251° West 338 389 17,100 -1,357 Descending FlightAware ADS-B
Sat 04:06:46 PM 42.6010 -86.5450 251° West 338 389 16,300 -1,291 Descending FlightAware ADS-B
Sat 04:07:26 PM 42.5800 -86.6280 251° West 339 390 15,400 -1,341 Descending FlightAware ADS-B
Sat 04:08:11 PM 42.5570 -86.7170 251° West 342 394 14,400 -1,432 Descending FlightAware ADS-B
Sat 04:08:54 PM 42.5340 -86.8070 251° West 344 396 13,300 -1,465 Descending FlightAware ADS-B
Sat 04:09:37 PM 42.5130 -86.8910 251° West 335 386 12,300 -1,590 Descending FlightAware ADS-B
Sat 04:10:17 PM 42.4920 -86.9710 250° West 329 379 11,100 -1,537 Descending FlightAware ADS-B
Sat 04:10:59 PM 42.4710 -87.0510 250° West 315 362 10,200 -929 Descending FlightAware ADS-B
Sat 04:11:41 PM 42.4520 -87.1240 251° West 284 327 9,800 -750 Descending FlightAware ADS-B
Sat 04:11:55 PM 42.4460 -87.1460 250° West 281 323 9,500 -1,067 Descending FlightAware ADS-B
Sat 04:12:26 PM 42.4320 -87.1970 250° West 275 316 9,000 -500 Descending FlightAware ADS-B
Sat 04:12:55 PM 42.4190 -87.2430 249° West 277 319 9,000  Level FlightAware ADS-B
Sat 04:13:23 PM 42.4060 -87.2900 249° West 277 319 9,000  Level FlightAware ADS-B
Sat 04:13:47 PM 42.3950 -87.3290 249° West 276 318 9,000 -115 Level FlightAware ADS-B
Sat 04:14:15 PM 42.3830 -87.3750 251° West 274 315 8,900 -632 Descending FlightAware ADS-B
Sat 04:14:44 PM 42.3680 -87.4220 247° West 275 316 8,400 -1,091 Descending FlightAware ADS-B
Sat 04:14:59 PM 42.3620 -87.4420 248° West 274 315 8,100 -1,395 Descending FlightAware ADS-B
Sat 04:15:27 PM 42.3490 -87.4880 249° West 272 313 7,400 -1,222 Descending FlightAware ADS-B
Sat 04:15:53 PM 42.3320 -87.5230 237° Southwest 271 312 7,000 -808 Descending FlightAware ADS-B
Sat 04:16:19 PM 42.3060 -87.5530 220° Southwest 266 306 6,700 -818 Descending FlightAware ADS-B
Sat 04:16:37 PM 42.2900 -87.5720 221° Southwest 267 307 6,400 -933 Descending FlightAware ADS-B
Sat 04:17:04 PM 42.2630 -87.6020 219° Southwest 268 308 6,000 -1,019 Descending FlightAware ADS-B
Sat 04:17:30 PM 42.2380 -87.6300 220° Southwest 267 307 5,500 -982 Descending FlightAware ADS-B
Sat 04:17:59 PM 42.2120 -87.6590 220° Southwest 265 305 5,100 -508 Descending FlightAware ADS-B
Sat 04:18:29 PM 42.1830 -87.6910 219° Southwest 264 304 5,000 -211 Descending FlightAware ADS-B
Sat 04:18:56 PM 42.1680 -87.7080 220° Southwest 258 297 4,900 -778 Descending FlightAware ADS-B
Sat 04:19:23 PM 42.1340 -87.7450 219° Southwest 245 282 4,300 -1,424 Descending FlightAware ADS-B
Sat 04:19:55 PM 42.1070 -87.7750 220° Southwest 230 265 3,500 -1,448 Descending FlightAware ADS-B
Sat 04:20:21 PM 42.0860 -87.7990 220° Southwest 216 249 2,900 -1,111 Descending FlightAware ADS-B
Sat 04:20:49 PM 42.0660 -87.8210 219° Southwest 189 217 2,500 -1,071 Descending FlightAware ADS-B
Sat 04:21:17 PM 42.0480 -87.8410 220° Southwest 169 194 1,900 -964 Descending FlightAware ADS-B
Sat 04:21:45 PM 42.0330 -87.8580 220° Southwest 151 174 1,600 -750 Descending FlightAware ADS-B
Sat 04:22:13 PM 42.0180 -87.8740 218° Southwest 145 167 1,200 -857 Descending FlightAware ADS-B
Sat 04:22:41 PM 42.0030 -87.8900 218° Southwest 148 170 800 -789 Descending FlightAware ADS-B
Sat 04:22:51 PM 42.0000 -87.8940 225° Southwest 149 171 700 -600 Descending FlightAware ADS-B
Sat 04:23:24 PM 41.9860 -87.9080 217° Southwest 29 33 -1,273 Descending FlightAware ADS-B
Sat 04:23:34 PM 41.9850 -87.9090 217° Southwest 22 25  Level FlightAware ADS-B
Sat 04:23:50 PM 41.9840 -87.9090 180° South 16 18  Level FlightAware ADS-B
Sat 04:24:32 PM 41.9830 -87.9080 143° Southeast 18 21  Level FlightAware ADS-B

Login

Don't have an account? Register now (free) for customized features, flight alerts, and more!